Current Weather Conditions from Arkansas, Oklahoma, Missouri & Kansas

As well as selected U.S. cities associated with XNA Flights


KVBT - Bentonville Arkansas, Airport
Updated: Wed, Aug-Wed-2019 10:56pm
Clear
Clear
 Wind from ESE
Wind: ESE 5 mph , 7 km/h
Temperature: 75°F , 24°C
Dew Point: 70°F , 21°C
Humidity: 83%
Barometer: 30.04 inHg , 1017.3 hPa
Clouds: Clear
Visibility: 10 miles , 16 km
2019/08/22 03:56 KVBT 220356Z AUTO 11004KT 10SM CLR 24/21 A3004 RMK AO2 SLP161 T02390211
KROG - Rogers Arkansas, Airport
Updated: Wed, Aug-Wed-2019 10:58pm
Clear
Clear
 Wind from ESE
Wind: ESE 7 mph , 11 km/h
Temperature: 73°F , 23°C
Dew Point: 70°F , 21°C
Humidity: 89%
Barometer: 30.04 inHg , 1017.3 hPa
Clouds: Clear
Visibility: 10 miles , 16 km
2019/08/22 03:58 KROG 220358Z AUTO 11006KT 10SM CLR 23/21 A3004 RMK AO2 SLP156 T02280211
KXNA - Northwest Arkansas Regional Airport
Updated: Wed, Aug-Wed-2019 10:53pm
Clear
Clear
 Wind from E
Wind: E 3 mph , 6 km/h
Temperature: 73°F , 23°C
Dew Point: 66°F , 19°C
Humidity: 78%
Barometer: 30.02 inHg , 1016.6 hPa
Clouds: Clear
Visibility: 10 miles , 16 km
2019/08/22 03:53 KXNA 220353Z AUTO 08003KT 10SM CLR 23/19 A3002 RMK AO2 SLP150 T02280194
 
KSLG - Siloam Spring Arkansas, Airport
Updated: Wed, Aug-Wed-2019 10:56pm
Clear
Clear
 Wind from SE
Wind: SE 6 mph , 9 km/h
Temperature: 75°F , 24°C
Dew Point: 70°F , 21°C
Humidity: 83%
Barometer: 30.02 inHg , 1016.6 hPa
Clouds: Clear
Visibility: 10 miles , 16 km
2019/08/22 03:56 KSLG 220356Z AUTO 14005KT 10SM CLR 24/21 A3002 RMK AO2 SLP152 T02390206
KASG - Springdale, Arkansas, Airport
Updated: Wed, Aug-Wed-2019 8:48pm
NOT Current
Clear
Clear
 Wind from SE
Wind: SE 3 mph , 6 km/h
Temperature: 75°F , 24°C
Dew Point: 73°F , 23°C
Humidity: 94%
Barometer: 29.99 inHg , 1015.6 hPa
Clouds: Clear
Visibility: 10 miles , 16 km
2019/08/22 01:48 KASG 220148Z 13003KT 10SM CLR 24/23 A2999
KFYV - Fayetteville Arkansas, Airport
Updated: Wed, Aug-Wed-2019 10:53pm
Clear
Clear
 Wind from SSE
Wind: SSE 6 mph , 9 km/h
Temperature: 77°F , 25°C
Dew Point: 70°F , 21°C
Humidity: 79%
Barometer: 30.02 inHg , 1016.6 hPa
Clouds: Clear
Visibility: 10 miles , 16 km
2019/08/22 03:53 KFYV 220353Z AUTO 15005KT 10SM CLR 25/21 A3002 RMK AO2 SLP147 T02500206
 
KHRO - Harrison, Arkansas
Updated: Wed, Aug-Wed-2019 10:53pm
Clear
Clear
 Wind from SSE
Wind: SSE 6 mph , 9 km/h
Temperature: 68°F , 20°C
Dew Point: 68°F , 20°C
Humidity: 100%
Barometer: 30.04 inHg , 1017.3 hPa
Clouds: Clear
Visibility: 9 miles , 14 km
2019/08/22 03:53 KHRO 220353Z AUTO 16005KT 9SM CLR 20/20 A3004 RMK AO2 SLP157 T02000200
KFLP - Flippin, Arkansas
Updated: Wed, Aug-Wed-2019 10:56pm
Clear
Clear
 Wind from N
Wind: N 3 mph , 6 km/h
Temperature: 70°F , 21°C
Dew Point: 68°F , 20°C
Humidity: 94%
Barometer: 30.03 inHg , 1016.9 hPa
Clouds: Clear
Visibility: 10 miles , 16 km
2019/08/22 03:56 KFLP 220356Z AUTO 01003KT 10SM CLR 21/20 A3003 RMK AO2 SLP160 T02060200
KBPK - Mountain Home, Arkansas
Updated: Wed, Aug-Wed-2019 10:53pm
Clear
Clear
 Wind from calm
Wind: Calm
Temperature: 70°F , 21°C
Dew Point: 70°F , 21°C
Humidity: 100%
Barometer: 30.02 inHg , 1016.6 hPa
Clouds: Clear
Visibility: 10 miles , 16 km
2019/08/22 03:53 KBPK 220353Z AUTO 00000KT 10SM CLR 21/21 A3002 RMK AO2 SLP154 T02060206
 
KCCA - Clinton, Arkansas
Updated: Wed, Aug-Wed-2019 11:15pm
Mostly cloudy
Mostly cloudy
 Wind from calm
Wind: Calm
Temperature: 73°F , 23°C
Dew Point: 72°F , 22°C
Humidity: 94%
Barometer: 30.02 inHg , 1016.6 hPa
Clouds: Mostly cloudy
Visibility: 10 miles , 16 km
Cloud details: Mostly cloudy 5000 ft
2019/08/22 04:15 KCCA 220415Z AUTO 00000KT 10SM BKN050 23/22 A3002 RMK AO2
KRUE - Russellville, Arkansas
Updated: Wed, Aug-Wed-2019 10:53pm
Clear
Clear
 Wind from ESE
Wind: ESE 3 mph , 6 km/h
Temperature: 75°F , 24°C
Dew Point: 72°F , 22°C
Humidity: 89%
Barometer: 29.96 inHg , 1014.6 hPa
Clouds: Clear
Visibility: 10 miles , 16 km
2019/08/22 03:53 KRUE 220353Z AUTO 11003KT 10SM CLR 24/22 A2996 RMK AO2 SLP136 T02390217
KBVX - Batesville, Arkansa
Updated: Wed, Aug-Wed-2019 10:56pm
Few Clouds
Few Clouds
 Wind from S
Wind: S 3 mph , 6 km/h
Temperature: 73°F , 23°C
Dew Point: 72°F , 22°C
Humidity: 94%
Barometer: 30.01 inHg , 1016.3 hPa
Clouds: Few Clouds
Visibility: 10 miles , 16 km
Cloud details: Few Clouds 4500 ft
2019/08/22 03:56 KBVX 220356Z AUTO 18003KT 10SM FEW045 23/22 A3001 RMK AO2 SLP156 T02280222
 
KBYH - Blytheville, Arkansas
Updated: Wed, Aug-Wed-2019 4:50pm
NOT Current
Few Clouds
Few Clouds
 Wind from S
Wind: S 3 mph , 6 km/h
Temperature: 93°F , 34°C
Heat Index: 107°F , 42°C
Dew Point: 77°F , 25°C
Humidity: 59%
Barometer: 29.96 inHg , 1014.6 hPa
Clouds: Few Clouds
Visibility: 10 miles , 16 km
Cloud details: Few Clouds 8000 ft
2019/08/21 21:50 KBYH 212150Z 17003KT 10SM FEW080 34/25 A2996 RMK LAST
KM19 - Newport, Arkansas
Updated: Wed, Aug-Wed-2019 10:56pm
Few Clouds
Few Clouds
 Wind from calm
Wind: Calm
Temperature: 75°F , 24°C
Dew Point: 72°F , 22°C
Humidity: 89%
Barometer: 29.99 inHg , 1015.6 hPa
Clouds: Few Clouds
Visibility: 8 miles , 13 km
Cloud details: Few Clouds 5000 ft
2019/08/22 03:56 KM19 220356Z AUTO 00000KT 8SM FEW050 24/22 A2999 RMK AO2 SLP153 T02390222
KSRC - Searcy, Arkansas
Updated: Wed, Aug-Wed-2019 10:56pm
Clear
Clear
 Wind from N
Wind: N 5 mph , 7 km/h
Temperature: 77°F , 25°C
Dew Point: 72°F , 22°C
Humidity: 83%
Barometer: 29.98 inHg , 1015.2 hPa
Clouds: Clear
Visibility: 10 miles , 16 km
2019/08/22 03:56 KSRC 220356Z AUTO 01004KT 10SM CLR 25/22 A2998 RMK AO2 SLP153 T02500222
 
KARG - Walnut Ridge, Arkansas
Updated: Wed, Aug-Wed-2019 10:56pm
Few Clouds
Few Clouds
 Wind from ENE
Wind: ENE 6 mph , 9 km/h
Temperature: 75°F , 24°C
Dew Point: 72°F , 22°C
Humidity: 89%
Barometer: 29.99 inHg , 1015.6 hPa
Clouds: Few Clouds
Visibility: 10 miles , 16 km
Cloud details: Few Clouds 3600 ft
2019/08/22 03:56 KARG 220356Z AUTO 07005KT 10SM FEW036 24/22 A2999 RMK AO2 SLP156 T02390222
KJBR - Jonesboro, Arkansas
Updated: Wed, Aug-Wed-2019 10:53pm
Clear
Clear
 Wind from ENE
Wind: ENE 5 mph , 7 km/h
Temperature: 75°F , 24°C
Dew Point: 72°F , 22°C
Humidity: 89%
Barometer: 29.98 inHg , 1015.2 hPa
Clouds: Clear
Visibility: 10 miles , 16 km
2019/08/22 03:53 KJBR 220353Z AUTO 06004KT 10SM CLR 24/22 A2998 RMK AO2 SLP149 T02440217
K4M9 - Corning, Arkansas
Updated: Wed, Aug-Wed-2019 11:15pm
Clear
Clear
 Wind from calm
Wind: Calm
Temperature: 75°F , 24°C
Dew Point: 75°F , 24°C
Humidity: 100%
Barometer: 29.99 inHg , 1015.6 hPa
Clouds: Clear
Visibility: 10 miles , 16 km
2019/08/22 04:15 K4M9 220415Z AUTO 00000KT 10SM CLR 24/24 A2999 RMK AO2 PWINO
 
KLRF - Little Rock Afb, Arkansas
Updated: Wed, Aug-Wed-2019 10:56pm
Clear
Clear
 Wind from calm
Wind: Calm
Temperature: 81°F , 27°C
Heat Index: 88°F , 31°C
Dew Point: 77°F , 25°C
Humidity: 89%
Barometer: 29.96 inHg , 1014.6 hPa
Clouds: Clear
Visibility: 10 miles , 16 km
2019/08/22 03:56 KLRF 220356Z AUTO 00000KT 10SM CLR 27/25 A2996 RMK AO2 RAE11DZB11E17 SLP145 P0000 T02680252 $
KLIT - Little Rock, Arkansas
Updated: Wed, Aug-Wed-2019 10:53pm
Partly cloudy
Partly cloudy
 Wind from SSE
Wind: SSE 3 mph , 6 km/h
Temperature: 82°F , 28°C
Heat Index: 87°F , 31°C
Dew Point: 73°F , 23°C
Humidity: 74%
Barometer: 29.96 inHg , 1014.6 hPa
Clouds: Partly cloudy
Visibility: 10 miles , 16 km
Cloud details: Partly cloudy 6500 ft
Partly cloudy 11000 ft
2019/08/22 03:53 KLIT 220353Z 16003KT 10SM SCT065 SCT110 28/23 A2996 RMK AO2 RAB0256E18 SLP144 P0000 T02780228
KSGT - Stuttgart, Arkansas
Updated: Wed, Aug-Wed-2019 10:56pm
Clear
Clear
 Wind from SE
Wind: SE 9 mph , 15 km/h
Temperature: 82°F , 28°C
Heat Index: 87°F , 31°C
Dew Point: 73°F , 23°C
Humidity: 74%
Barometer: 29.94 inHg , 1013.9 hPa
Clouds: Clear
Visibility: 10 miles , 16 km
2019/08/22 03:56 KSGT 220356Z AUTO 14008KT 10SM CLR 28/23 A2994 RMK AO2 SLP138 T02780233
 
KAWM - West Memphis, Arkansas
Updated: Wed, Aug-Wed-2019 10:53pm
Clear
Clear
 Wind from SSE
Wind: SSE 6 mph , 9 km/h
Temperature: 81°F , 27°C
Heat Index: 87°F , 31°C
Dew Point: 75°F , 24°C
Humidity: 84%
Barometer: 29.97 inHg , 1014.9 hPa
Clouds: Clear
Visibility: 10 miles , 16 km
2019/08/22 03:53 KAWM 220353Z AUTO 16005KT 10SM CLR 27/24 A2997 RMK AO2 SLP142 T02670244
KFSM - Fort Smith, Arkansas
Updated: Wed, Aug-Wed-2019 10:53pm
Clear
Clear
 Wind from E
Wind: E 3 mph , 6 km/h
Temperature: 79°F , 26°C
Dew Point: 73°F , 23°C
Humidity: 84%
Barometer: 29.96 inHg , 1014.6 hPa
Clouds: Clear
Visibility: 10 miles , 16 km
2019/08/22 03:53 KFSM 220353Z AUTO 09003KT 10SM CLR 26/23 A2996 RMK AO2 SLP140 T02610228
KMWT - Mount Ida, Arkansas
Updated: Wed, Aug-Wed-2019 10:53pm
Clear
Clear
 Wind from calm
Wind: Calm
Temperature: 75°F , 24°C
Dew Point: 72°F , 22°C
Humidity: 89%
Barometer: 29.96 inHg , 1014.6 hPa
Clouds: Clear
Visibility: 10 miles , 16 km
2019/08/22 03:53 KMWT 220353Z AUTO 00000KT 10SM CLR 24/22 A2996 RMK AO2 SLP131 T02390222
 
KMEZ - Mena, Arkansas
Updated: Wed, Aug-Wed-2019 11:15pm
Partly cloudy
Partly cloudy
 Wind from calm
Wind: Calm
Temperature: 79°F , 26°C
Dew Point: 72°F , 22°C
Humidity: 79%
Barometer: 30.01 inHg , 1016.3 hPa
Clouds: Partly cloudy
Visibility: 10 miles , 16 km
Cloud details: Partly cloudy 6000 ft
2019/08/22 04:15 KMEZ 220415Z AUTO 00000KT 10SM SCT060 26/22 A3001 RMK AO2
KHOT - Hot Springs, Arkansas
Updated: Wed, Aug-Wed-2019 10:53pm
Clear
Clear
 Wind from E
Wind: E 5 mph , 7 km/h
Temperature: 81°F , 27°C
Heat Index: 85°F , 29°C
Dew Point: 72°F , 22°C
Humidity: 74%
Barometer: 29.96 inHg , 1014.6 hPa
Clouds: Clear
Visibility: 10 miles , 16 km
2019/08/22 03:53 KHOT 220353Z AUTO 09004KT 10SM CLR 27/22 A2996 RMK AO2 SLP136 T02720222
KADF - Arkadelphia, Arkansas
Updated: Wed, Aug-Wed-2019 10:56pm
Clear
Clear
 Wind from calm
Wind: Calm
Temperature: 79°F , 26°C
Dew Point: 77°F , 25°C
Humidity: 94%
Barometer: 29.95 inHg , 1014.2 hPa
Clouds: Clear
Visibility: 10 miles , 16 km
2019/08/22 03:56 KADF 220356Z AUTO 00000KT 10SM CLR 26/25 A2995 RMK AO2 SLP141 T02610250
 
KSGT - Stuttgart, Arkansas
Updated: Wed, Aug-Wed-2019 10:56pm
Clear
Clear
 Wind from SE
Wind: SE 9 mph , 15 km/h
Temperature: 82°F , 28°C
Heat Index: 87°F , 31°C
Dew Point: 73°F , 23°C
Humidity: 74%
Barometer: 29.94 inHg , 1013.9 hPa
Clouds: Clear
Visibility: 10 miles , 16 km
2019/08/22 03:56 KSGT 220356Z AUTO 14008KT 10SM CLR 28/23 A2994 RMK AO2 SLP138 T02780233
KPBF - Pine Bluff, Arkansas
Updated: Wed, Aug-Wed-2019 10:53pm
Clear
Clear
 Wind from SE
Wind: SE 7 mph , 11 km/h
Temperature: 79°F , 26°C
Dew Point: 70°F , 21°C
Humidity: 74%
Barometer: 29.94 inHg , 1013.9 hPa
Clouds: Clear
Visibility: 10 miles , 16 km
2019/08/22 03:53 KPBF 220353Z AUTO 14006KT 10SM CLR 26/21 A2994 RMK AO2 SLP137 T02610211
KSRC - Searcy, Arkansas
Updated: Wed, Aug-Wed-2019 10:56pm
Clear
Clear
 Wind from N
Wind: N 5 mph , 7 km/h
Temperature: 77°F , 25°C
Dew Point: 72°F , 22°C
Humidity: 83%
Barometer: 29.98 inHg , 1015.2 hPa
Clouds: Clear
Visibility: 10 miles , 16 km
2019/08/22 03:56 KSRC 220356Z AUTO 01004KT 10SM CLR 25/22 A2998 RMK AO2 SLP153 T02500222
 
KRUE - Russellville, Arkansas
Updated: Wed, Aug-Wed-2019 10:53pm
Clear
Clear
 Wind from ESE
Wind: ESE 3 mph , 6 km/h
Temperature: 75°F , 24°C
Dew Point: 72°F , 22°C
Humidity: 89%
Barometer: 29.96 inHg , 1014.6 hPa
Clouds: Clear
Visibility: 10 miles , 16 km
2019/08/22 03:53 KRUE 220353Z AUTO 11003KT 10SM CLR 24/22 A2996 RMK AO2 SLP136 T02390217
KCCA - Clinton, Arkansas
Updated: Wed, Aug-Wed-2019 11:15pm
Mostly cloudy
Mostly cloudy
 Wind from calm
Wind: Calm
Temperature: 73°F , 23°C
Dew Point: 72°F , 22°C
Humidity: 94%
Barometer: 30.02 inHg , 1016.6 hPa
Clouds: Mostly cloudy
Visibility: 10 miles , 16 km
Cloud details: Mostly cloudy 5000 ft
2019/08/22 04:15 KCCA 220415Z AUTO 00000KT 10SM BKN050 23/22 A3002 RMK AO2
KLLQ - Monticello, Arkansas
Updated: Wed, Aug-Wed-2019 10:53pm
Clear
Clear
 Wind from S
Wind: S 7 mph , 11 km/h
Temperature: 81°F , 27°C
Heat Index: 85°F , 29°C
Dew Point: 72°F , 22°C
Humidity: 74%
Barometer: 29.98 inHg , 1015.2 hPa
Clouds: Clear
Visibility: 10 miles , 16 km
2019/08/22 03:53 KLLQ 220353Z AUTO 17006KT 10SM CLR 27/22 A2998 RMK AO2 SLP149 T02720222
 
KCDH - Camden, Arkansas
Updated: Wed, Aug-Wed-2019 11:15pm
Clear
Clear
 
Temperature: 81°F , 27°C
Heat Index: 85°F , 29°C
Dew Point: 70°F , 21°C
Humidity: 70%
Barometer: 29.93 inHg , 1013.5 hPa
Clouds: Clear
Visibility: 10 miles , 16 km
2019/08/22 04:15 KCDH 220415Z AUTO 10SM CLR 27/21 A2993 RMK AO2
KM19 - Newport, Arkansas
Updated: Wed, Aug-Wed-2019 10:56pm
Few Clouds
Few Clouds
 Wind from calm
Wind: Calm
Temperature: 75°F , 24°C
Dew Point: 72°F , 22°C
Humidity: 89%
Barometer: 29.99 inHg , 1015.6 hPa
Clouds: Few Clouds
Visibility: 8 miles , 13 km
Cloud details: Few Clouds 5000 ft
2019/08/22 03:56 KM19 220356Z AUTO 00000KT 8SM FEW050 24/22 A2999 RMK AO2 SLP153 T02390222
KDEQ - De Queen, Arkansas
Updated: Wed, Aug-Wed-2019 10:53pm
Clear
Clear
 Wind from calm
Wind: Calm
Temperature: 84°F , 29°C
Heat Index: 90°F , 32°C
Dew Point: 73°F , 23°C
Humidity: 70%
Barometer: 29.93 inHg , 1013.5 hPa
Clouds: Clear
Visibility: 10 miles , 16 km
2019/08/22 03:53 KDEQ 220353Z AUTO 00000KT 10SM CLR 29/23 A2993 RMK AO1 SLP129 T02940228
 
KTXK - Texarkana, Arkansas
Updated: Wed, Aug-Wed-2019 10:53pm
Clear
Clear
 Wind from SSE
Wind: SSE 9 mph , 15 km/h
Temperature: 84°F , 29°C
Heat Index: 88°F , 31°C
Dew Point: 70°F , 21°C
Humidity: 62%
Barometer: 29.95 inHg , 1014.2 hPa
Clouds: Clear
Visibility: 10 miles , 16 km
2019/08/22 03:53 KTXK 220353Z AUTO 16008KT 10SM CLR 29/21 A2995 RMK AO2 SLP134 T02940206
KELD - El Dorado, Arkansas
Updated: Wed, Aug-Wed-2019 10:53pm
Clear
Clear
 Wind from SSE
Wind: SSE 9 mph , 15 km/h
Temperature: 81°F , 27°C
Heat Index: 87°F , 31°C
Dew Point: 75°F , 24°C
Humidity: 84%
Barometer: 29.97 inHg , 1014.9 hPa
Clouds: Clear
2019/08/22 03:53 KELD 220353Z AUTO 16008KT CLR 27/24 A2997 RMK AO2 SLP144 T02720239 $
KCSM - Clinton, Oklahoma
Updated: Wed, Aug-Wed-2019 10:53pm
Clear
Clear
 Wind from SSE
Wind: SSE 15 mph , 24 km/h
Temperature: 84°F , 29°C
Heat Index: 83°F , 28°C
Dew Point: 57°F , 14°C
Humidity: 40%
Barometer: 29.95 inHg , 1014.2 hPa
Clouds: Clear
Visibility: 10 miles , 16 km
2019/08/22 03:53 KCSM 220353Z 16013KT 10SM CLR 29/14 A2995 RMK AO2 SLP111 T02890144
 
KHBR - Hobart, Oklahoma
Updated: Wed, Aug-Wed-2019 10:53pm

 
Barometer: 29.93 inHg , 1013.5 hPa
2019/08/22 03:53 KHBR 220353Z AUTO A2993 RMK AO2 SLPNO PWINO $
KLTS - Altus Afb, Oklahoma
Updated: Wed, Aug-Wed-2019 10:56pm
Few Clouds
Few Clouds
 Wind from SSE
Wind: SSE 7 mph , 11 km/h
Temperature: 81°F , 27°C
Heat Index: 83°F , 28°C
Dew Point: 64°F , 18°C
Humidity: 58%
Barometer: 29.92 inHg , 1013.2 hPa
Clouds: Few Clouds
Visibility: 10 miles , 16 km
Cloud details: Few Clouds 22000 ft
2019/08/22 03:56 KLTS 220356Z 15006KT 10SM FEW220 27/18 A2992 RMK AO2A SLP114 T02650175 $
KFSI - Fort Sill, Oklahoma
Updated: Wed, Aug-Wed-2019 10:56pm
Clear
Clear
 Wind from SSE
Wind: SSE 9 mph , 15 km/h
Temperature: 86°F , 30°C
Heat Index: 92°F , 33°C
Dew Point: 72°F , 22°C
Humidity: 62%
Barometer: 29.92 inHg , 1013.2 hPa
Clouds: Clear
Visibility: 10 miles , 16 km
2019/08/22 03:56 KFSI 220356Z AUTO 15008KT 10SM CLR 30/22 A2992 RMK AO2 SLP117 T02960215
 
KGAG - Gage, Oklahoma
Updated: Wed, Aug-Wed-2019 10:53pm
Clear
Clear
 Wind from WNW
Wind: WNW 5 mph , 7 km/h
Temperature: 79°F , 26°C
Dew Point: 57°F , 14°C
Humidity: 48%
Barometer: 29.98 inHg , 1015.2 hPa
Clouds: Clear
Visibility: 10 miles , 16 km
2019/08/22 03:53 KGAG 220353Z AUTO 30004KT 10SM CLR 26/14 A2998 RMK AO2 SLP116 T02610144 $
KWWR - Woodward, Oklahoma
Updated: Wed, Aug-Wed-2019 11:15pm
Clear
Clear
 Wind from WNW
Wind: WNW 3 mph , 6 km/h
Temperature: 77°F , 25°C
Dew Point: 61°F , 16°C
Humidity: 57%
Barometer: 30.01 inHg , 1016.3 hPa
Clouds: Clear
Visibility: 10 miles , 16 km
2019/08/22 04:15 KWWR 220415Z AUTO 30003KT 10SM CLR 25/16 A3001 RMK AO2 LTG DSNT W
KLAW - Lawton, Oklahoma
Updated: Wed, Aug-Wed-2019 10:53pm
Clear
Clear
 Wind from SSE
Wind: SSE 7 mph , 11 km/h
Temperature: 88°F , 31°C
Heat Index: 91°F , 33°C
Dew Point: 66°F , 19°C
Humidity: 49%
Barometer: 29.93 inHg , 1013.5 hPa
Clouds: Clear
Visibility: 10 miles , 16 km
2019/08/22 03:53 KLAW 220353Z AUTO 15006KT 10SM CLR 31/19 A2993 RMK AO2 SLP116 T03110194
 
KOKC - Oklahoma City, Oklahoma
Updated: Wed, Aug-Wed-2019 10:52pm
Few Clouds
Few Clouds
 Wind from S
Wind: S 8 mph , 13 km/h
Temperature: 82°F , 28°C
Heat Index: 85°F , 29°C
Dew Point: 68°F , 20°C
Humidity: 62%
Barometer: 29.95 inHg , 1014.2 hPa
Clouds: Few Clouds
Visibility: 10 miles , 16 km
Cloud details: Few Clouds 20000 ft
Few Clouds 25000 ft
2019/08/22 03:52 KOKC 220352Z 17007KT 10SM FEW200 FEW250 28/20 A2995 RMK AO2 SLP121 T02830200 $
KEND - Enid/Vance Afb, Oklahoma
Updated: Wed, Aug-Wed-2019 10:56pm
Mostly cloudy
Mostly cloudy
 Wind from E
Wind: E 9 mph , 15 km/h
Temperature: 84°F , 29°C
Heat Index: 89°F , 32°C
Dew Point: 72°F , 22°C
Humidity: 66%
Barometer: 29.93 inHg , 1013.5 hPa
Clouds: Mostly cloudy
Visibility: 10 miles , 16 km
Cloud details: Mostly cloudy 9500 ft
Mostly cloudy 13000 ft
2019/08/22 03:56 KEND 220356Z AUTO 09008KT 10SM BKN095 BKN130 29/22 A2993 RMK AO2 SLP119 T02900222 $
KFDR - Frederick/Altus, Oklahoma
Updated: Wed, Aug-Wed-2019 10:53pm
Clear
Clear
 Wind from SSE
Wind: SSE 15 mph , 24 km/h
Temperature: 90°F , 32°C
Heat Index: 93°F , 34°C
Dew Point: 66°F , 19°C
Humidity: 46%
Barometer: 29.89 inHg , 1012.2 hPa
Clouds: Clear
Visibility: 10 miles , 16 km
2019/08/22 03:53 KFDR 220353Z AUTO 15013KT 10SM CLR 32/19 A2989 RMK AO2 SLP098 T03170189
 
KOUN - Norman, Oklahoma
Updated: Wed, Aug-Wed-2019 11:15pm
Clear
Clear
 Wind from SSE
Wind: SSE 9 mph , 15 km/h
Temperature: 86°F , 30°C
Heat Index: 89°F , 32°C
Dew Point: 68°F , 20°C
Humidity: 55%
Barometer: 29.93 inHg , 1013.5 hPa
Clouds: Clear
Visibility: 10 miles , 16 km
2019/08/22 04:15 KOUN 220415Z AUTO 16008KT 10SM CLR 30/20 A2993 RMK AO2 T02970201
KTIK - Tinker Afb, Oklahoma
Updated: Wed, Aug-Wed-2019 10:56pm
Clear
Clear
 Wind from S
Wind: S 9 mph , 15 km/h
Temperature: 82°F , 28°C
Heat Index: 85°F , 29°C
Dew Point: 68°F , 20°C
Humidity: 62%
Barometer: 29.95 inHg , 1014.2 hPa
Clouds: Clear
Visibility: 10 miles , 16 km
2019/08/22 03:56 KTIK 220356Z AUTO 17008KT 10SM CLR 28/20 A2995 RMK AO2 SLP131 T02800203 $
KGOK - Guthrie, Oklahoma
Updated: Wed, Aug-Wed-2019 10:53pm
Clear
Clear
 Wind from SE
Wind: SE 9 mph , 15 km/h
Temperature: 82°F , 28°C
Heat Index: 86°F , 30°C
Dew Point: 70°F , 21°C
Humidity: 66%
Barometer: 29.93 inHg , 1013.5 hPa
Clouds: Clear
Visibility: 10 miles , 16 km
2019/08/22 03:53 KGOK 220353Z AUTO 13008KT 10SM CLR 28/21 A2993 RMK AO2 SLP121 T02830211
 
KSNL - Shawnee, Oklahoma
Updated: Wed, Aug-Wed-2019 11:15pm
Clear
Clear
 Wind from SE
Wind: SE 8 mph , 13 km/h
Temperature: 82°F , 28°C
Heat Index: 86°F , 30°C
Dew Point: 70°F , 21°C
Humidity: 66%
Barometer: 29.95 inHg , 1014.2 hPa
Clouds: Clear
Visibility: 10 miles , 16 km
2019/08/22 04:15 KSNL 220415Z AUTO 14007KT 10SM CLR 28/21 A2995 RMK AO2 T02790211
KCQB - Chandler, Oklahoma
Updated: Wed, Aug-Wed-2019 11:15pm
Clear
Clear
 Wind from SE
Wind: SE 5 mph , 7 km/h
Temperature: 79°F , 26°C
Dew Point: 70°F , 21°C
Humidity: 74%
Barometer: 29.95 inHg , 1014.2 hPa
Clouds: Clear
Visibility: 10 miles , 16 km
2019/08/22 04:15 KCQB 220415Z AUTO 14004KT 10SM CLR 26/21 A2995 RMK AO2 T02640209
KPVJ - Pauls Valley, Oklahoma
Updated: Wed, May-Wed-2019 11:30am
NOT Current
Heavy thunderstorm, Rain, Overcast
Heavy thunderstorm, Rain, Overcast
 Wind from S
Wind: S 28 mph , 44 km/h, Gust: 49 mph , 80 km/h
Temperature: 70°F , 21°C
Dew Point: 68°F , 20°C
Humidity: 94%
Barometer: 29.81 inHg , 1009.5 hPa
Summary: Heavy thunderstorm, Rain
Clouds: Overcast
Visibility: 1 1/4 miles , 2 km
Cloud details: Partly cloudy 1200 ft
Mostly cloudy 2000 ft
Overcast 2600 ft
2019/05/29 16:30 KPVJ 291630Z AUTO 17024G43KT 1 1/4SM +TSRA SCT012 BKN020 OVC026 21/20 A2981 RMK AO2 LTG DSNT ALQS P0022 T02050198
 
KEND - Enid/Vance Afb, Oklahoma
Updated: Wed, Aug-Wed-2019 10:56pm
Mostly cloudy
Mostly cloudy
 Wind from E
Wind: E 9 mph , 15 km/h
Temperature: 84°F , 29°C
Heat Index: 89°F , 32°C
Dew Point: 72°F , 22°C
Humidity: 66%
Barometer: 29.93 inHg , 1013.5 hPa
Clouds: Mostly cloudy
Visibility: 10 miles , 16 km
Cloud details: Mostly cloudy 9500 ft
Mostly cloudy 13000 ft
2019/08/22 03:56 KEND 220356Z AUTO 09008KT 10SM BKN095 BKN130 29/22 A2993 RMK AO2 SLP119 T02900222 $
KSWO - Stillwater, Oklahoma
Updated: Wed, Aug-Wed-2019 10:53pm
Clear
Clear
 Wind from ESE
Wind: ESE 8 mph , 13 km/h
Temperature: 84°F , 29°C
Heat Index: 86°F , 30°C
Dew Point: 66°F , 19°C
Humidity: 55%
Barometer: 29.95 inHg , 1014.2 hPa
Clouds: Clear
Visibility: 10 miles , 16 km
2019/08/22 03:53 KSWO 220353Z AUTO 11007KT 10SM CLR 29/19 A2995 RMK AO2 SLP124 T02890194
KFSI - Fort Sill, Oklahoma
Updated: Wed, Aug-Wed-2019 10:56pm
Clear
Clear
 Wind from SSE
Wind: SSE 9 mph , 15 km/h
Temperature: 86°F , 30°C
Heat Index: 92°F , 33°C
Dew Point: 72°F , 22°C
Humidity: 62%
Barometer: 29.92 inHg , 1013.2 hPa
Clouds: Clear
Visibility: 10 miles , 16 km
2019/08/22 03:56 KFSI 220356Z AUTO 15008KT 10SM CLR 30/22 A2992 RMK AO2 SLP117 T02960215
 
KDUC - Duncan, Oklahoma
Updated: Wed, Aug-Wed-2019 11:15pm
Clear
Clear
 Wind from SSE
Wind: SSE 8 mph , 13 km/h
Temperature: 84°F , 29°C
Heat Index: 87°F , 31°C
Dew Point: 68°F , 20°C
Humidity: 58%
Barometer: 29.95 inHg , 1014.2 hPa
Clouds: Clear
Visibility: 10 miles , 16 km
2019/08/22 04:15 KDUC 220415Z AUTO 16007KT 10SM CLR 29/20 A2995 RMK AO2 T02900199
KOKM - Okmulgee, Oklahoma
Updated: Wed, Aug-Wed-2019 11:15pm
Partly cloudy
Partly cloudy
 Wind from ENE
Wind: ENE 5 mph , 7 km/h
Temperature: 79°F , 26°C
Dew Point: 72°F , 22°C
Humidity: 79%
Barometer: 29.96 inHg , 1014.6 hPa
Clouds: Partly cloudy
Visibility: 10 miles , 16 km
Cloud details: Partly cloudy 7500 ft
Partly cloudy 8000 ft
2019/08/22 04:15 KOKM 220415Z AUTO 06004KT 10SM SCT075 SCT080 26/22 A2996 RMK AO2 T02640221
KMLC - Mcalester, Oklahoma
Updated: Wed, Aug-Wed-2019 10:53pm
Clear
Clear
 Wind from SE
Wind: SE 3 mph , 6 km/h
Temperature: 77°F , 25°C
Dew Point: 73°F , 23°C
Humidity: 89%
Barometer: 29.95 inHg , 1014.2 hPa
Clouds: Clear
Visibility: 10 miles , 16 km
2019/08/22 03:53 KMLC 220353Z AUTO 13003KT 10SM CLR 25/23 A2995 RMK AO2 SLP131 T02500228
 
KMKO - Muskogee, Oklahoma
Updated: Wed, Aug-Wed-2019 10:53pm
Few Clouds
Few Clouds
 Wind from SE
Wind: SE 6 mph , 9 km/h
Temperature: 79°F , 26°C
Dew Point: 70°F , 21°C
Humidity: 74%
Barometer: 29.96 inHg , 1014.6 hPa
Clouds: Few Clouds
Visibility: 10 miles , 16 km
Cloud details: Few Clouds 7000 ft
2019/08/22 03:53 KMKO 220353Z AUTO 14005KT 10SM FEW070 26/21 A2996 RMK AO2 SLP137 T02560206
KRVS - Tulsa, Oklahoma
Updated: Wed, Aug-Wed-2019 10:53pm
Partly cloudy
Partly cloudy
 Wind from SE
Wind: SE 8 mph , 13 km/h
Temperature: 82°F , 28°C
Heat Index: 86°F , 30°C
Dew Point: 70°F , 21°C
Humidity: 66%
Barometer: 29.95 inHg , 1014.2 hPa
Clouds: Partly cloudy
Visibility: 10 miles , 16 km
Cloud details: Partly cloudy 7500 ft
2019/08/22 03:53 KRVS 220353Z AUTO 13007KT 10SM SCT075 28/21 A2995 RMK AO2 SLP142 T02830211 $
KGZL - Stigler, Oklahoma
Updated: Wed, Aug-Wed-2019 11:15pm
Clear
Clear
 Wind from E
Wind: E 6 mph , 9 km/h
Temperature: 81°F , 27°C
Heat Index: 83°F , 28°C
Dew Point: 64°F , 18°C
Humidity: 58%
Barometer: 29.97 inHg , 1014.9 hPa
Clouds: Clear
Visibility: 10 miles , 16 km
2019/08/22 04:15 KGZL 220415Z AUTO 10005KT 10SM CLR 27/18 A2997 RMK AO2
 
KADH - Ada, Oklahoma
Updated: Wed, Aug-Wed-2019 11:15pm
Clear
Clear
 Wind from SSE
Wind: SSE 5 mph , 7 km/h
Temperature: 81°F , 27°C
Heat Index: 85°F , 29°C
Dew Point: 70°F , 21°C
Humidity: 70%
Barometer: 29.96 inHg , 1014.6 hPa
Clouds: Clear
Visibility: 10 miles , 16 km
2019/08/22 04:15 KADH 220415Z AUTO 16004KT 10SM CLR 27/21 A2996 RMK AO2
KAQR - Atoka, Oklahoma
Updated: Wed, Aug-Wed-2019 11:15pm
Clear
Clear
 Wind from calm
Wind: Calm
Temperature: 84°F , 29°C
Heat Index: 87°F , 31°C
Dew Point: 68°F , 20°C
Humidity: 58%
Barometer: 29.95 inHg , 1014.2 hPa
Clouds: Clear
Visibility: 10 miles , 16 km
2019/08/22 04:15 KAQR 220415Z AUTO 00000KT 10SM CLR 29/20 A2995 RMK AO2
KJSV - Sallisaw, Oklahoma
Updated: Wed, Aug-Wed-2019 11:15pm
Clear
Clear
 Wind from E
Wind: E 6 mph , 9 km/h
Temperature: 79°F , 26°C
Dew Point: 68°F , 20°C
Humidity: 70%
Barometer: 29.97 inHg , 1014.9 hPa
Clouds: Clear
Visibility: 10 miles , 16 km
2019/08/22 04:15 KJSV 220415Z AUTO 09005KT 10SM CLR 26/20 A2997 RMK AO2
 
KTQH - Tahlequah, Oklahoma
Updated: Wed, Aug-Wed-2019 11:15pm
Clear
Clear
 Wind from calm
Wind: Calm
Temperature: 77°F , 25°C
Dew Point: 68°F , 20°C
Humidity: 74%
Barometer: 29.99 inHg , 1015.6 hPa
Clouds: Clear
Visibility: 10 miles , 16 km
2019/08/22 04:15 KTQH 220415Z AUTO 00000KT 10SM CLR 25/20 A2999 RMK AO2
KGCM - Claremore, Oklahoma
Updated: Wed, Aug-Wed-2019 11:15pm
Clear
Clear
 Wind from ESE
Wind: ESE 3 mph , 6 km/h
Temperature: 73°F , 23°C
Dew Point: 70°F , 21°C
Humidity: 89%
Barometer: 29.97 inHg , 1014.9 hPa
Clouds: Clear
Visibility: 10 miles , 16 km
2019/08/22 04:15 KGCM 220415Z AUTO 12003KT 10SM CLR 23/21 A2997 RMK AO2
KRKR - Poteau, Oklahoma
Updated: Wed, Aug-Wed-2019 11:15pm
Clear
Clear
 Wind from NW
Wind: NW 3 mph , 6 km/h
Temperature: 73°F , 23°C
Dew Point: 73°F , 23°C
Humidity: 100%
Barometer: 29.96 inHg , 1014.6 hPa
Clouds: Clear
Visibility: 10 miles , 16 km
2019/08/22 04:15 KRKR 220415Z AUTO 32003KT 10SM CLR 23/23 A2996 RMK AO2
 
KGMJ - Grove, Oklahoma
Updated: Wed, Aug-Wed-2019 11:15pm
Partly cloudy
Partly cloudy
 Wind from calm
Wind: Calm
Temperature: 73°F , 23°C
Dew Point: 68°F , 20°C
Humidity: 83%
Barometer: 30.00 inHg , 1015.9 hPa
Clouds: Partly cloudy
Visibility: 10 miles , 16 km
Cloud details: Partly cloudy 12000 ft
2019/08/22 04:15 KGMJ 220415Z AUTO 00000KT 10SM SCT120 23/20 A3000 RMK AO2 LTG DSNT NW
K4O4 - Idabel, Oklahoma
Updated: Wed, Aug-Wed-2019 11:15pm
Clear
Clear
 Wind from SSE
Wind: SSE 7 mph , 11 km/h
Temperature: 82°F , 28°C
Heat Index: 85°F , 29°C
Dew Point: 68°F , 20°C
Humidity: 62%
Barometer: 29.93 inHg , 1013.5 hPa
Clouds: Clear
Visibility: 10 miles , 16 km
2019/08/22 04:15 K4O4 220415Z AUTO 16006KT 10SM CLR 28/20 A2993 RMK AO2
KHHW - Hugo, Oklahoma
Updated: Wed, Jun-Wed-2019 9:18am
NOT Current
Clear
Clear
 Wind from WSW
Wind: WSW 8 mph , 13 km/h
Temperature: 70°F , 21°C
Dew Point: 61°F , 16°C
Humidity: 73%
Barometer: 30.00 inHg , 1015.9 hPa
Clouds: Clear
Visibility: 10 miles , 16 km
2019/06/12 14:18 KHHW 121418Z 24007KT 10SM CLR 21/16 A3000
 
KDUA - Durant, Oklahoma
Updated: Wed, Aug-Wed-2019 11:17pm
Clear
Clear
 Wind from S
Wind: S 5 mph , 7 km/h
Temperature: 84°F , 29°C
Heat Index: 88°F , 31°C
Dew Point: 70°F , 21°C
Humidity: 62%
Barometer: 29.96 inHg , 1014.6 hPa
Clouds: Clear
Visibility: 10 miles , 16 km
2019/08/22 04:17 KDUA 220417Z AUTO 17004KT 10SM CLR 29/21 A2996 RMK AO2
KSTJ - St. Joseph, Missouri
Updated: Wed, Aug-Wed-2019 10:53pm
Light rain, Mostly cloudy
Light rain, Mostly cloudy
 Wind from E
Wind: E 7 mph , 11 km/h
Temperature: 73°F , 23°C
Dew Point: 70°F , 21°C
Humidity: 89%
Barometer: 30.03 inHg , 1016.9 hPa
Summary: Light rain
Clouds: Mostly cloudy
Visibility: 10 miles , 16 km
Cloud details: Partly cloudy 5500 ft
Partly cloudy 7000 ft
Mostly cloudy 9000 ft
2019/08/22 03:53 KSTJ 220353Z AUTO 09006KT 10SM -RA SCT055 SCT070 BKN090 23/21 A3003 RMK AO2 RAB05 SLP162 P0003 T02280206
KMCI - Kansas City/Intl, Missouri
Updated: Wed, Aug-Wed-2019 10:53pm
Overcast
Overcast
 Wind from NE
Wind: NE 10 mph , 17 km/h
Temperature: 73°F , 23°C
Dew Point: 70°F , 21°C
Humidity: 89%
Barometer: 30.02 inHg , 1016.6 hPa
Clouds: Overcast
Visibility: 10 miles , 16 km
Cloud details: Few Clouds 7000 ft
Overcast 11000 ft
2019/08/22 03:53 KMCI 220353Z 04009KT 10SM FEW070 OVC110 23/21 A3002 RMK AO2 LTG DSNT SE RAE0254 SLP154 CB DSNT SE P0000 T02280211
 
KMKC - Kansas City/Dntn, Missouri
Updated: Wed, Aug-Wed-2019 10:54pm
Mostly cloudy
Mostly cloudy
 Wind from NNE
Wind: NNE 7 mph , 11 km/h
Temperature: 77°F , 25°C
Dew Point: 72°F , 22°C
Humidity: 83%
Barometer: 30.01 inHg , 1016.3 hPa
Clouds: Mostly cloudy
Visibility: 10 miles , 16 km
Cloud details: Partly cloudy 1300 ft
Mostly cloudy 3900 ft
2019/08/22 03:54 KMKC 220354Z 02006KT 10SM SCT013 BKN039 25/22 A3001 RMK AO2 LTG DSNT E RAB08E21 SLP153 P0000 T02500217
KCDJ - Chillicothe, Missouri
Updated: Wed, Aug-Wed-2019 10:52pm

 Wind from NNE
Wind: NNE 8 mph , 13 km/h
Temperature: 73°F , 23°C
Dew Point: 70°F , 21°C
Humidity: 89%
Barometer: 30.03 inHg , 1016.9 hPa
2019/08/22 03:52 KCDJ 220352Z AUTO 03007KT 23/21 A3003 RMK AO1 SLP159 T02280211
KIRK - Kirksville, Missouri
Updated: Wed, Aug-Wed-2019 10:55pm
Overcast
Overcast
 Wind from calm
Wind: Calm
Temperature: 72°F , 22°C
Dew Point: 70°F , 21°C
Humidity: 94%
Barometer: 30.05 inHg , 1017.6 hPa
Clouds: Overcast
Visibility: 10 miles , 16 km
Cloud details: Few Clouds 6000 ft
Mostly cloudy 8000 ft
Overcast 10000 ft
2019/08/22 03:55 KIRK 220355Z AUTO 00000KT 10SM FEW060 BKN080 OVC100 22/21 A3005 RMK AO2 RAE02 SLP172 P0000 T02170206
 
KSZL - Whiteman Afb, Missouri
Updated: Wed, Aug-Wed-2019 11:19pm
Light rain, Nearby thunderstorm, Mostly cloudy
Light rain, Nearby thunderstorm, Mostly cloudy
 Wind from S
Wind: S 10 mph , 17 km/h
Temperature: 73°F , 23°C
Dew Point: 73°F , 23°C
Humidity: 100%
Barometer: 30.02 inHg , 1016.6 hPa
Summary: Light rain, Nearby thunderstorm
Clouds: Mostly cloudy
Visibility: 10 miles , 16 km
Cloud details: Mostly cloudy 10000 ft
2019/08/22 04:19 KSZL 220419Z 17009KT 10SM -RA VCTS BKN100 23/23 A3002 RMK AO2A PRESRR SLP162 FZRANO $
KDMO - Sedalia, Missouri
Updated: Wed, Aug-Wed-2019 11:16pm
Nearby thunderstorm, Heavy rain, Mist, Overcast
Nearby thunderstorm, Heavy rain, Mist, Overcast
 Wind from SSE
Wind: SSE 3 mph , 6 km/h
Temperature: 72°F , 22°C
Dew Point: 72°F , 22°C
Humidity: 100%
Barometer: 30.05 inHg , 1017.6 hPa
Summary: Nearby thunderstorm, Heavy rain, Mist
Clouds: Overcast
Visibility: 4 miles , 6 km
Cloud details: Partly cloudy 5000 ft
Mostly cloudy 6500 ft
Overcast 8000 ft
2019/08/22 04:16 KDMO 220416Z AUTO 15003KT 4SM VCTS +RA BR SCT050 BKN065 OVC080 22/22 A3005 RMK AO2 LTG DSNT ALQDS TSE10 P0007 T02220217
KGLY - Clinton, Missouri
Updated: Wed, Aug-Wed-2019 11:15pm
Nearby thunderstorm, Light rain, Overcast
Nearby thunderstorm, Light rain, Overcast
 Wind from S
Wind: S 6 mph , 9 km/h
Temperature: 72°F , 22°C
Dew Point: 72°F , 22°C
Humidity: 100%
Barometer: 30.01 inHg , 1016.3 hPa
Summary: Nearby thunderstorm, Light rain
Clouds: Overcast
Visibility: 3 miles , 5 km
Cloud details: Few Clouds 600 ft
Mostly cloudy 2900 ft
Overcast 3600 ft
2019/08/22 04:15 KGLY 220415Z AUTO 17005KT 3SM VCTS -RA FEW006 BKN029 OVC036 22/22 A3001 RMK AO2 LTG DSNT ALQDS
 
KCOU - Columbia, Missouri
Updated: Wed, Aug-Wed-2019 10:54pm
Mostly cloudy
Mostly cloudy
 Wind from SE
Wind: SE 7 mph , 11 km/h
Temperature: 75°F , 24°C
Dew Point: 68°F , 20°C
Humidity: 78%
Barometer: 30.04 inHg , 1017.3 hPa
Clouds: Mostly cloudy
Visibility: 10 miles , 16 km
Cloud details: Partly cloudy 1800 ft
Mostly cloudy 6000 ft
2019/08/22 03:54 KCOU 220354Z AUTO 13006KT 10SM SCT018 BKN060 24/20 A3004 RMK AO2 LTG DSNT S AND SW SLP163 T02390200
KJEF - Jefferson City, Missouri
Updated: Wed, Aug-Wed-2019 10:53pm
Overcast
Overcast
 Wind from SSW
Wind: SSW 9 mph , 15 km/h
Temperature: 77°F , 25°C
Dew Point: 70°F , 21°C
Humidity: 79%
Barometer: 30.02 inHg , 1016.6 hPa
Clouds: Overcast
Visibility: 10 miles , 16 km
Cloud details: Few Clouds 1600 ft
Mostly cloudy 3500 ft
Overcast 5500 ft
2019/08/22 03:53 KJEF 220353Z AUTO 20008KT 10SM FEW016 BKN035 OVC055 25/21 A3002 RMK AO2 SLP151 T02500206 TSNO
KVIH - Vichy/Rolla, Missouri
Updated: Wed, Aug-Wed-2019 10:53pm
Light rain, Few clouds
Light rain, Few clouds
 Wind from SSW
Wind: SSW 9 mph , 15 km/h
Temperature: 70°F , 21°C
Dew Point: 66°F , 19°C
Humidity: 88%
Barometer: 30.05 inHg , 1017.6 hPa
Summary: Light rain
Clouds: Few Clouds
Visibility: 10 miles , 16 km
Cloud details: Few Clouds 12000 ft
2019/08/22 03:53 KVIH 220353Z AUTO 21008KT 10SM -RA FEW120 21/19 A3005 RMK AO2 LTG DSNT ALQDS SLP164 P0003 T02110194
 
KTBN - Fort Leonard Wood, Missouri
Updated: Wed, Aug-Wed-2019 11:19pm
Light rain, Overcast
Light rain, Overcast
 Wind from ENE
Wind: ENE 7 mph , 11 km/h
Temperature: 70°F , 21°C
Dew Point: 68°F , 20°C
Humidity: 94%
Barometer: 30.04 inHg , 1017.3 hPa
Summary: Light rain
Clouds: Overcast
Visibility: 8 miles , 13 km
Cloud details: Overcast 6000 ft
2019/08/22 04:19 KTBN 220419Z AUTO 07006KT 8SM -RA OVC060 21/20 A3004 RMK AO2 LTG DSNT N-NE TSE19 PRESFR SLP164
KJLN - Joplin, Missouri
Updated: Wed, Aug-Wed-2019 10:53pm
Overcast
Overcast
 Wind from N
Wind: N 14 mph , 22 km/h, Gust: 20 mph , 31 km/h
Temperature: 75°F , 24°C
Dew Point: 70°F , 21°C
Humidity: 83%
Barometer: 30.04 inHg , 1017.3 hPa
Clouds: Overcast
Visibility: 10 miles , 16 km
Cloud details: Overcast 8000 ft
2019/08/22 03:53 KJLN 220353Z AUTO 01012G17KT 10SM OVC080 24/21 A3004 RMK AO2 LTG DSNT N PRESRR SLP158 T02390206
KHFJ - Monett, Missouri
Updated: Wed, Aug-Wed-2019 11:15pm
Mostly cloudy
Mostly cloudy
 Wind from SE
Wind: SE 3 mph , 6 km/h
Temperature: 72°F , 22°C
Dew Point: 68°F , 20°C
Humidity: 88%
Barometer: 30.04 inHg , 1017.3 hPa
Clouds: Mostly cloudy
Visibility: 10 miles , 16 km
Cloud details: Mostly cloudy 12000 ft
2019/08/22 04:15 KHFJ 220415Z AUTO 13003KT 10SM BKN120 22/20 A3004 RMK AO2 LTG DSNT NW
 
KSGF - Springfield, Missouri
Updated: Wed, Aug-Wed-2019 10:52pm
Overcast
Overcast
 Wind from S
Wind: S 13 mph , 20 km/h
Temperature: 75°F , 24°C
Dew Point: 64°F , 18°C
Humidity: 69%
Barometer: 30.02 inHg , 1016.6 hPa
Clouds: Overcast
Visibility: 10 miles , 16 km
Cloud details: Overcast 8500 ft
2019/08/22 03:52 KSGF 220352Z AUTO 18011KT 10SM OVC085 24/18 A3002 RMK AO2 LTG DSNT N SLP152 T02390183
KBBG - Branson, Missouri
Updated: Wed, Aug-Wed-2019 11:15pm
Light rain, Clear
Light rain, Clear
 Wind from calm
Wind: Calm
Temperature: 68°F , 20°C
Dew Point: 66°F , 19°C
Humidity: 94%
Barometer: 30.06 inHg , 1017.9 hPa
Summary: Light rain
Clouds: Clear
Visibility: 10 miles , 16 km
2019/08/22 04:15 KBBG 220415Z AUTO 00000KT 10SM -RA CLR 20/19 A3006 RMK AO2
KUNO - West Plains, Missouri
Updated: Wed, Aug-Wed-2019 10:53pm
Clear
Clear
 Wind from calm
Wind: Calm
Temperature: 70°F , 21°C
Dew Point: 66°F , 19°C
Humidity: 88%
Barometer: 30.04 inHg , 1017.3 hPa
Clouds: Clear
Visibility: 10 miles , 16 km
2019/08/22 03:53 KUNO 220353Z AUTO 00000KT 10SM CLR 21/19 A3004 RMK AO2 SLP159 T02060194 $
 
KFAM - Farmington, Missouri
Updated: Wed, Aug-Wed-2019 10:56pm
Light rain, Few clouds
Light rain, Few clouds
 Wind from NNE
Wind: NNE 6 mph , 9 km/h
Temperature: 72°F , 22°C
Dew Point: 66°F , 19°C
Humidity: 83%
Barometer: 30.04 inHg , 1017.3 hPa
Summary: Light rain
Clouds: Few Clouds
Visibility: 10 miles , 16 km
Cloud details: Few Clouds 5500 ft
2019/08/22 03:56 KFAM 220356Z AUTO 02005KT 10SM -RA FEW055 22/19 A3004 RMK AO2 RAE28B46 PRESRR SLP169 P0000 T02220194
KCGI - Cape Girardeau, Missouri
Updated: Wed, Aug-Wed-2019 10:53pm
Clear
Clear
 Wind from WSW
Wind: WSW 9 mph , 15 km/h
Temperature: 72°F , 22°C
Dew Point: 68°F , 20°C
Humidity: 88%
Barometer: 29.95 inHg , 1014.2 hPa
Clouds: Clear
Visibility: 10 miles , 16 km
2019/08/22 03:53 KCGI 220353Z AUTO 24008KT 10SM CLR 22/20 A2995 RMK AO2 RAE00 SLP139 P0000 T02220200
KSTL - St. Louis, Missouri
Updated: Wed, Aug-Wed-2019 10:51pm
Light thunderstorm, Rain, Overcast
Light thunderstorm, Rain, Overcast
 Wind from SW
Wind: SW 17 mph , 28 km/h
Temperature: 73°F , 23°C
Dew Point: 66°F , 19°C
Humidity: 78%
Barometer: 30.03 inHg , 1016.9 hPa
Summary: Light thunderstorm, Rain
Clouds: Overcast
Visibility: 10 miles , 16 km
Cloud details: Few Clouds 1000 ft
Few Clouds 4000 ft
Mostly cloudy 10000 ft
Overcast 14000 ft
2019/08/22 03:51 KSTL 220351Z 22015KT 10SM -TSRA FEW010 FEW040CB BKN100 OVC140 23/19 A3003 RMK AO2 PK WND 23026/0324 WSHFT 0249 LTG DSNT E AND SE RAB0258 SLP156 OCNL LTGICCCCG E-SW TS E-SW MOV NE P0000 T02330194
 
KPOF - Popular Bluff, Missouri
Updated: Wed, Aug-Wed-2019 10:53pm
Clear
Clear
 Wind from NW
Wind: NW 6 mph , 9 km/h
Temperature: 73°F , 23°C
Dew Point: 70°F , 21°C
Humidity: 89%
Barometer: 29.95 inHg , 1014.2 hPa
Clouds: Clear
Visibility: 10 miles , 16 km
2019/08/22 03:53 KPOF 220353Z AUTO 31005KT 10SM CLR 23/21 A2995 RMK AO2 RAE23 TSE02 SLP138 P0000 T02280206
KSET - St. Charles, Missouri
Updated: Wed, Aug-Wed-2019 10:54pm

 
Barometer: 30.02 inHg , 1016.6 hPa
2019/08/22 03:54 KSET 220354Z AUTO A3002 RMK AO2 LTG DSNT SE SLPNO PWINO $
KGLD - Goodland, Kansas
Updated: Wed, Aug-Wed-2019 10:53pm
Overcast
Overcast
 Wind from E
Wind: E 14 mph , 22 km/h
Temperature: 72°F , 22°C
Dew Point: 66°F , 19°C
Humidity: 83%
Barometer: 30.11 inHg , 1019.6 hPa
Clouds: Overcast
Visibility: 10 miles , 16 km
Cloud details: Overcast 1200 ft
2019/08/22 03:53 KGLD 220353Z AUTO 09012KT 10SM OVC012 22/19 A3011 RMK AO2 SLPNO T02170194
 
KHLC - Hill City, Kansas
Updated: Wed, Aug-Wed-2019 11:31pm
Mostly cloudy
Mostly cloudy
 Wind from E
Wind: E 14 mph , 22 km/h
Temperature: 72°F , 22°C
Dew Point: 70°F , 21°C
Humidity: 94%
Barometer: 30.08 inHg , 1018.6 hPa
Clouds: Mostly cloudy
Visibility: 10 miles , 16 km
Cloud details: Mostly cloudy 900 ft
2019/08/22 04:31 KHLC 220431Z AUTO 08012KT 10SM BKN009 22/21 A3008 RMK AO2 CIG 008V012 T02170206
KHYS - Hays Muni, Kansas
Updated: Wed, Aug-Wed-2019 11:25pm
Partly cloudy
Partly cloudy
 Wind from E
Wind: E 15 mph , 24 km/h
Temperature: 72°F , 22°C
Dew Point: 70°F , 21°C
Humidity: 94%
Barometer: 29.83 inHg , 1010.2 hPa
Clouds: Partly cloudy
Visibility: 10 miles , 16 km
Cloud details: Partly cloudy 800 ft
2019/08/22 04:25 KHYS 220425Z AUTO 08013KT 10SM SCT008 22/21 A2983 RMK AO2
KRSL - Russell, Kansas
Updated: Wed, Aug-Wed-2019 10:53pm
Partly cloudy
Partly cloudy
 Wind from ENE
Wind: ENE 14 mph , 22 km/h
Temperature: 72°F , 22°C
Dew Point: 68°F , 20°C
Humidity: 88%
Barometer: 30.02 inHg , 1016.6 hPa
Clouds: Partly cloudy
Visibility: 10 miles , 16 km
Cloud details: Partly cloudy 10000 ft
2019/08/22 03:53 KRSL 220353Z AUTO 07012KT 10SM SCT100 22/20 A3002 RMK AO2 SLP154 T02170200
 
KGBD - Great Bend, Kansas
Updated: Wed, Aug-Wed-2019 10:56pm
Partly cloudy
Partly cloudy
 Wind from E
Wind: E 13 mph , 20 km/h
Temperature: 72°F , 22°C
Dew Point: 68°F , 20°C
Humidity: 88%
Barometer: 30.02 inHg , 1016.6 hPa
Clouds: Partly cloudy
Visibility: 10 miles , 16 km
Cloud details: Partly cloudy 1200 ft
Partly cloudy 11000 ft
2019/08/22 03:56 KGBD 220356Z AUTO 09011KT 10SM SCT012 SCT110 22/20 A3002 RMK AO2 SLP150 T02220200
KDDC - Dodge City, Kansas
Updated: Wed, Aug-Wed-2019 11:10pm
Mostly cloudy
Mostly cloudy
 Wind from E
Wind: E 9 mph , 15 km/h
Temperature: 72°F , 22°C
Dew Point: 70°F , 21°C
Humidity: 94%
Barometer: 30.03 inHg , 1016.9 hPa
Clouds: Mostly cloudy
Visibility: 9 miles , 14 km
Cloud details: Mostly cloudy 900 ft
2019/08/22 04:10 KDDC 220410Z AUTO 08008KT 9SM BKN009 22/21 A3003 RMK AO2 CIG 007V012 T02220206
KPTT - Pratt Indust, Kansas
Updated: Wed, Aug-Wed-2019 11:15pm

 Wind from ESE
Wind: ESE 15 mph , 24 km/h, Gust: 24 mph , 39 km/h
Visibility: 10 miles , 16 km
2019/08/22 04:15 KPTT 220415Z AUTO 11013G21KT 10SM -VCTSRA SCT060 BKN075 OVC090 22/20 A2998 RMK AO2 LTG DSNT E THRU S T02180197
 
KSLN - Salina, Kansas
Updated: Wed, Aug-Wed-2019 10:53pm
Clear
Clear
 Wind from E
Wind: E 8 mph , 13 km/h
Temperature: 73°F , 23°C
Dew Point: 68°F , 20°C
Humidity: 83%
Barometer: 30.01 inHg , 1016.3 hPa
Clouds: Clear
Visibility: 10 miles , 16 km
2019/08/22 03:53 KSLN 220353Z 10007KT 10SM CLR 23/20 A3001 RMK AO2 SLP151 T02280200
KHUT - Hutchinson, Kansas
Updated: Wed, Aug-Wed-2019 11:04pm
Mostly cloudy
Mostly cloudy
 Wind from E
Wind: E 6 mph , 9 km/h
Temperature: 73°F , 23°C
Dew Point: 66°F , 19°C
Humidity: 78%
Barometer: 30.00 inHg , 1015.9 hPa
Clouds: Mostly cloudy
Visibility: 10 miles , 16 km
Cloud details: Partly cloudy 8000 ft
Mostly cloudy 11000 ft
2019/08/22 04:04 KHUT 220404Z AUTO 10005KT 10SM SCT080 BKN110 23/19 A3000 RMK AO2 LTG DSNT ALQDS T02330189
KGCK - Garden City, Kansas
Updated: Wed, Aug-Wed-2019 10:54pm
Clear
Clear
 Wind from ENE
Wind: ENE 13 mph , 20 km/h
Temperature: 73°F , 23°C
Dew Point: 66°F , 19°C
Humidity: 78%
Barometer: 30.04 inHg , 1017.3 hPa
Clouds: Clear
Visibility: 10 miles , 16 km
2019/08/22 03:54 KGCK 220354Z AUTO 07011KT 10SM CLR 23/19 A3004 RMK AO2 SLP139 T02280194
 
KP28 - Medicine Lodge, Kansas
Updated: Wed, Aug-Wed-2019 10:56pm

 Wind from ENE
Wind: ENE 13 mph , 20 km/h, Gust: 22 mph , 35 km/h
Temperature: 79°F , 26°C
Dew Point: 72°F , 22°C
Humidity: 79%
Barometer: 29.96 inHg , 1014.6 hPa
2019/08/22 03:56 KP28 220356Z AUTO 07011G19KT 26/22 A2996 RMK AO1 WSHFT 0325 SLP126 T02610217
KICT - Wichita, Kansas
Updated: Wed, Aug-Wed-2019 10:53pm
Light thunderstorm, Rain, Overcast
Light thunderstorm, Rain, Overcast
 Wind from N
Wind: N 10 mph , 17 km/h
Temperature: 73°F , 23°C
Dew Point: 64°F , 18°C
Humidity: 74%
Barometer: 30.00 inHg , 1015.9 hPa
Summary: Light thunderstorm, Rain
Clouds: Overcast
Visibility: 10 miles , 16 km
Cloud details: Few Clouds 6000 ft
Few Clouds 8000 ft
Partly cloudy 11000 ft
Mostly cloudy 15000 ft
Overcast 22000 ft
2019/08/22 03:53 KICT 220353Z 36009KT 10SM -TSRA FEW060CB FEW080 SCT110 BKN150 OVC220 23/18 A3000 RMK AO2 LTG DSNT ALQDS SLP143 FRQ LTGICCCCG VC W-N TS VC W-N MOV SE P0001 T02280178
KRSL - Russell, Kansas
Updated: Wed, Aug-Wed-2019 10:53pm
Partly cloudy
Partly cloudy
 Wind from ENE
Wind: ENE 14 mph , 22 km/h
Temperature: 72°F , 22°C
Dew Point: 68°F , 20°C
Humidity: 88%
Barometer: 30.02 inHg , 1016.6 hPa
Clouds: Partly cloudy
Visibility: 10 miles , 16 km
Cloud details: Partly cloudy 10000 ft
2019/08/22 03:53 KRSL 220353Z AUTO 07012KT 10SM SCT100 22/20 A3002 RMK AO2 SLP154 T02170200
 
KMHK - Manhattan, Kansas
Updated: Wed, Aug-Wed-2019 10:52pm
Partly cloudy
Partly cloudy
 Wind from ENE
Wind: ENE 7 mph , 11 km/h
Temperature: 73°F , 23°C
Dew Point: 70°F , 21°C
Humidity: 89%
Barometer: 30.00 inHg , 1015.9 hPa
Clouds: Partly cloudy
Visibility: 10 miles , 16 km
Cloud details: Partly cloudy 11000 ft
2019/08/22 03:52 KMHK 220352Z AUTO 06006KT 10SM SCT110 23/21 A3000 RMK AO2 SLP151 T02280206
KEMP - Emporia, Kansas
Updated: Wed, Aug-Wed-2019 11:27pm
Mostly cloudy
Mostly cloudy
 Wind from NE
Wind: NE 6 mph , 9 km/h
Temperature: 73°F , 23°C
Dew Point: 73°F , 23°C
Humidity: 100%
Barometer: 29.98 inHg , 1015.2 hPa
Clouds: Mostly cloudy
Visibility: 10 miles , 16 km
Cloud details: Mostly cloudy 3800 ft
2019/08/22 04:27 KEMP 220427Z AUTO 04005KT 10SM BKN038 23/23 A2998 RMK AO2 LTG DSNT N-E RAE12 P0001 T02280228
KTOP - Topeka, Kansas
Updated: Wed, Aug-Wed-2019 10:53pm
Overcast
Overcast
 Wind from NNE
Wind: NNE 6 mph , 9 km/h
Temperature: 73°F , 23°C
Dew Point: 70°F , 21°C
Humidity: 89%
Barometer: 30.01 inHg , 1016.3 hPa
Clouds: Overcast
Visibility: 10 miles , 16 km
Cloud details: Overcast 8000 ft
2019/08/22 03:53 KTOP 220353Z AUTO 03005KT 10SM OVC080 23/21 A3001 RMK AO2 SLP153 T02280211 $
 
KCNU - Chanute, Kansas
Updated: Wed, Aug-Wed-2019 10:52pm
Clear
Clear
 Wind from E
Wind: E 17 mph , 28 km/h, Gust: 26 mph , 43 km/h
Temperature: 79°F , 26°C
Dew Point: 70°F , 21°C
Humidity: 74%
Barometer: 30.00 inHg , 1015.9 hPa
Clouds: Clear
Visibility: 10 miles , 16 km
2019/08/22 03:52 KCNU 220352Z AUTO 09015G23KT 10SM CLR 26/21 A3000 RMK AO2 LTG DSNT SW SLP144 T02610211
KLWC - Lawrence, Kansas
Updated: Wed, Aug-Wed-2019 10:52pm
Mostly cloudy
Mostly cloudy
 Wind from NNE
Wind: NNE 5 mph , 7 km/h
Temperature: 75°F , 24°C
Dew Point: 70°F , 21°C
Humidity: 83%
Barometer: 30.01 inHg , 1016.3 hPa
Clouds: Mostly cloudy
Visibility: 10 miles , 16 km
Cloud details: Partly cloudy 8500 ft
Mostly cloudy 12000 ft
2019/08/22 03:52 KLWC 220352Z AUTO 02004KT 10SM SCT085 BKN120 24/21 A3001 RMK AO2 SLP154 T02440211
KPPF - Parsons, Kansas
Updated: Wed, Aug-Wed-2019 11:28pm
Nearby thunderstorm, Light rain, Mostly cloudy
Nearby thunderstorm, Light rain, Mostly cloudy
 Wind from SW
Wind: SW 3 mph , 6 km/h
Temperature: 81°F , 27°C
Heat Index: 87°F , 31°C
Dew Point: 75°F , 24°C
Humidity: 84%
Barometer: 30.00 inHg , 1015.9 hPa
Summary: Nearby thunderstorm, Light rain
Clouds: Mostly cloudy
Visibility: 5 miles , 8 km
Cloud details: Few Clouds 3200 ft
Mostly cloudy 4800 ft
Mostly cloudy 6000 ft
2019/08/22 04:28 KPPF 220428Z AUTO 23003KT 5SM VCTS -RA FEW032 BKN048 BKN060 27/24 A3000 RMK AO2 LTG DSNT ALQDS RAB27 PRESRR P0002 T02720244
 
KIDP - Independence, Kansas
Updated: Wed, Aug-Wed-2019 11:15pm
Nearby thunderstorm, Mostly cloudy
Nearby thunderstorm, Mostly cloudy
 Wind from WNW
Wind: WNW 20 mph , 31 km/h, Gust: 26 mph , 43 km/h
Temperature: 77°F , 25°C
Dew Point: 68°F , 20°C
Humidity: 74%
Barometer: 29.99 inHg , 1015.6 hPa
Summary: Nearby Thunderstorm
Clouds: Mostly cloudy
Visibility: 10 miles , 16 km
Cloud details: Partly cloudy 1900 ft
Partly cloudy 2900 ft
Mostly cloudy 3700 ft
2019/08/22 04:15 KIDP 220415Z AUTO 30017G23KT 10SM VCTS SCT019 SCT029 BKN037 25/20 A2999 RMK AO2 LTG DSNT ALQDS T02540196
KOJC - Olathe, Kansas
Updated: Wed, Aug-Wed-2019 10:53pm
Few Clouds
Few Clouds
 Wind from ENE
Wind: ENE 3 mph , 6 km/h
Temperature: 73°F , 23°C
Dew Point: 70°F , 21°C
Humidity: 89%
Barometer: 30.02 inHg , 1016.6 hPa
Clouds: Few Clouds
Visibility: 10 miles , 16 km
Cloud details: Few Clouds 12000 ft
2019/08/22 03:53 KOJC 220353Z AUTO 06003KT 10SM FEW120 23/21 A3002 RMK AO2 SLP155 T02330211
KCFV - Coffeyville, Kansas
Updated: Wed, Aug-Wed-2019 10:52pm
Clear
Clear
 Wind from SSE
Wind: SSE 6 mph , 9 km/h
Temperature: 81°F , 27°C
Heat Index: 86°F , 30°C
Dew Point: 73°F , 23°C
Humidity: 79%
Barometer: 29.95 inHg , 1014.2 hPa
Clouds: Clear
Visibility: 10 miles , 16 km
2019/08/22 03:52 KCFV 220352Z AUTO 15005KT 10SM CLR 27/23 A2995 RMK AO2 LTG DSNT W AND NW SLP135 T02670233
 
KPTS - Pittsburg, Kansas
Updated: Wed, Aug-Wed-2019 11:15pm
Partly cloudy
Partly cloudy
 Wind from E
Wind: E 6 mph , 9 km/h
Temperature: 73°F , 23°C
Dew Point: 70°F , 21°C
Humidity: 89%
Barometer: 30.00 inHg , 1015.9 hPa
Clouds: Partly cloudy
Visibility: 10 miles , 16 km
Cloud details: Partly cloudy 4400 ft
2019/08/22 04:15 KPTS 220415Z AUTO 08005KT 10SM SCT044 23/21 A3000 RMK AO2 LTG DSNT ALQS T02290209
KLGA - New York City, New York
Updated: Wed, Aug-Wed-2019 10:51pm
Mostly cloudy
Mostly cloudy
 Wind from SW
Wind: SW 8 mph , 13 km/h
Temperature: 81°F , 27°C
Heat Index: 85°F , 29°C
Dew Point: 72°F , 22°C
Humidity: 74%
Barometer: 29.87 inHg , 1011.5 hPa
Clouds: Mostly cloudy
Visibility: 10 miles , 16 km
Cloud details: Mostly cloudy 15000 ft
Mostly cloudy 25000 ft
2019/08/22 03:51 KLGA 220351Z 23007KT 10SM BKN150 BKN250 27/22 A2987 RMK AO2 SLP114 T02670217
KCLT - Charlotte, North Carolina
Updated: Wed, Aug-Wed-2019 10:52pm
Clear
Clear
 Wind from SSW
Wind: SSW 3 mph , 6 km/h
Temperature: 79°F , 26°C
Dew Point: 72°F , 22°C
Humidity: 79%
Barometer: 30.06 inHg , 1017.9 hPa
Clouds: Clear
Visibility: 10 miles , 16 km
2019/08/22 03:52 KCLT 220352Z 20003KT 10SM CLR 26/22 A3006 RMK AO2 SLP169 T02610222
 
KATL - Atlanta, Georgia
Updated: Wed, Aug-Wed-2019 10:52pm
Few Clouds
Few Clouds
 Wind from SW
Wind: SW 5 mph , 7 km/h
Temperature: 81°F , 27°C
Heat Index: 84°F , 29°C
Dew Point: 68°F , 20°C
Humidity: 66%
Barometer: 30.09 inHg , 1019 hPa
Clouds: Few Clouds
Visibility: 10 miles , 16 km
Cloud details: Few Clouds 25000 ft
2019/08/22 03:52 KATL 220352Z 23004KT 10SM FEW250 27/20 A3009 RMK AO2 SLP177 T02720200
KORL - Orlando, Florida
Updated: Wed, Aug-Wed-2019 10:53pm
Clear
Clear
 Wind from E
Wind: E 5 mph , 7 km/h
Temperature: 81°F , 27°C
Heat Index: 86°F , 30°C
Dew Point: 73°F , 23°C
Humidity: 79%
Barometer: 30.09 inHg , 1019 hPa
Clouds: Clear
Visibility: 10 miles , 16 km
2019/08/22 03:53 KORL 220353Z AUTO 10004KT 10SM CLR 27/23 A3009 RMK AO2 SLP191 T02670233
KMSP - Minneapolis, Minnesota
Updated: Wed, Aug-Wed-2019 10:53pm
Few Clouds
Few Clouds
 Wind from N
Wind: N 5 mph , 7 km/h
Temperature: 66°F , 19°C
Dew Point: 52°F , 11°C
Humidity: 60%
Barometer: 30.05 inHg , 1017.6 hPa
Clouds: Few Clouds
Visibility: 10 miles , 16 km
Cloud details: Few Clouds 6000 ft
Few Clouds 30000 ft
2019/08/22 03:53 KMSP 220353Z 35004KT 10SM FEW060 FEW300 19/11 A3005 RMK AO2 SLP172 T01940111
 
KORD - Chicago, Illinois
Updated: Wed, Aug-Wed-2019 10:51pm
Overcast
Overcast
 Wind from NNE
Wind: NNE 7 mph , 11 km/h
Temperature: 73°F , 23°C
Dew Point: 63°F , 17°C
Humidity: 69%
Barometer: 29.98 inHg , 1015.2 hPa
Clouds: Overcast
Visibility: 10 miles , 16 km
Cloud details: Few Clouds 3000 ft
Mostly cloudy 4600 ft
Overcast 18000 ft
2019/08/22 03:51 KORD 220351Z 02006KT 10SM FEW030 BKN046 OVC180 23/17 A2998 RMK AO2 SLP146 T02280167
KDFW - Dallas/Ft Worth, Texas
Updated: Wed, Aug-Wed-2019 10:53pm
Clear
Clear
 Wind from SSE
Wind: SSE 12 mph , 19 km/h
Temperature: 88°F , 31°C
Heat Index: 92°F , 33°C
Dew Point: 68°F , 20°C
Humidity: 52%
Barometer: 29.92 inHg , 1013.2 hPa
Clouds: Clear
Visibility: 10 miles , 16 km
2019/08/22 03:53 KDFW 220353Z 15010KT 10SM CLR 31/20 A2992 RMK AO2 SLP121 T03110200
KHOU - Houston, Texas
Updated: Wed, Aug-Wed-2019 10:53pm
Clear
Clear
 Wind from S
Wind: S 5 mph , 7 km/h
Temperature: 82°F , 28°C
Heat Index: 87°F , 31°C
Dew Point: 73°F , 23°C
Humidity: 74%
Barometer: 29.97 inHg , 1014.9 hPa
Clouds: Clear
Visibility: 10 miles , 16 km
2019/08/22 03:53 KHOU 220353Z 18004KT 10SM CLR 28/23 A2997 RMK AO2 SLP153 T02780233
 
KDEN - Denver, Colorado
Updated: Wed, Aug-Wed-2019 10:53pm
Overcast
Overcast
 Wind from S
Wind: S 15 mph , 24 km/h, Gust: 23 mph , 37 km/h
Temperature: 73°F , 23°C
Dew Point: 43°F , 6°C
Humidity: 33%
Barometer: 30.13 inHg , 1020.3 hPa
Clouds: Overcast
Visibility: 10 miles , 16 km
Cloud details: Few Clouds 12000 ft
Few Clouds 15000 ft
Overcast 20000 ft
2019/08/22 03:53 KDEN 220353Z 19013G20KT 10SM FEW120 FEW150 OVC200 23/06 A3013 RMK AO2 PK WND 18030/0315 LTG DSNT SE SLP123 T02280061
KSFO - San Francisco, California
Updated: Wed, Aug-Wed-2019 10:56pm
Mostly cloudy
Mostly cloudy
 Wind from WNW
Wind: WNW 13 mph , 20 km/h, Gust: 21 mph , 33 km/h
Temperature: 66°F , 19°C
Dew Point: 64°F , 18°C
Humidity: 94%
Barometer: 29.89 inHg , 1012.2 hPa
Clouds: Mostly cloudy
Visibility: 10 miles , 16 km
Cloud details: Few Clouds 200 ft
Mostly cloudy 700 ft
Mostly cloudy 20000 ft
2019/08/22 03:56 KSFO 220356Z 30011G18KT 10SM FEW002 BKN007 BKN200 19/18 A2989 RMK AO2 PK WND 28032/0258 SLP121 T01940178
KLAX - Los Angeles, California
Updated: Wed, Aug-Wed-2019 10:53pm
Clear
Clear
 Wind from W
Wind: W 8 mph , 13 km/h
Temperature: 72°F , 22°C
Dew Point: 61°F , 16°C
Humidity: 69%
Barometer: 29.76 inHg , 1007.8 hPa
Clouds: Clear
Visibility: 10 miles , 16 km
2019/08/22 03:53 KLAX 220353Z 26007KT 10SM CLR 22/16 A2976 RMK AO2 SLP077 T02220156